Terminal Aerodrome Forecast
Issued by NWS

Home | Current Version | Previous Version | Text Only | Print | Product List | Glossary On
Versions: 1 2 3 4 5 6 7 8 9 10 11 12 13 14
831
FTUS44 KEPZ 210531
TAFTCS
TAF
KTCS 210531Z 2106/2206 29006KT P6SM SCT030 BKN060
     FM210900 29006KT P6SM BKN030
      TEMPO 2110/2114 4SM BR BKN010
     FM211800 21007KT P6SM BKN050
     FM220300 25006KT P6SM BKN100=

USA.gov is the U.S. government's official web portal to all federal, state and local government web resources and services.